San Francisco, California
Current Conditions -  °F | °C
As of 7:56 PM on Wednesday 26 Nov 2014 (Local Time) from KSFO Reporting Station
Few Clouds Few Clouds  
Wind Chill: 61°   Ceiling: Unl
Heat Index: 61°   Visibility: 10mi
Dew Point: 50°   Wind: 0mph
Humidity: 67%   Direction: NA
Pressure: 30.21"   Gusts: NA
Location:  37.78°N, 122.42°W
Report Text: KSFO 270356Z 00000KT 10SM FEW180 16/10 A3021 RMK AO2 SLP229 T01610100
Loading
Personal Weather Stations






























Interactive Weather Map New forecast layout! Learn more

10-Day Weather Forecast

Advertisements
Track Severe Weather on mobile